createdAt,value
2023-02-14T00:00:00.000Z,84.05
2023-02-14T00:15:00.000Z,84.71
2023-02-14T00:30:00.000Z,85.03
2023-02-14T00:45:00.000Z,84.74
2023-02-14T01:00:00.000Z,84.81
2023-02-14T01:15:00.000Z,84.66
2023-02-14T01:30:00.000Z,84.62
2023-02-14T01:45:00.000Z,84.43
2023-02-14T02:00:00.000Z,84.89
2023-02-14T02:15:00.000Z,85.13
2023-02-14T02:30:00.000Z,85.43
2023-02-14T02:45:00.000Z,85.28
2023-02-14T03:00:00.000Z,85.09
2023-02-14T03:15:00.000Z,85.18
2023-02-14T03:30:00.000Z,85.56
2023-02-14T03:45:00.000Z,85.74
2023-02-14T04:00:00.000Z,85.65
2023-02-14T04:15:00.000Z,85.46
2023-02-14T04:30:00.000Z,85.75
2023-02-14T04:45:00.000Z,85.85
2023-02-14T05:00:00.000Z,86.15
2023-02-14T05:15:00.000Z,86.03
2023-02-14T05:30:00.000Z,85.96
2023-02-14T05:45:00.000Z,85.76
2023-02-14T06:00:00.000Z,85.66
2023-02-14T06:15:00.000Z,85.85
2023-02-14T06:30:00.000Z,85.73
2023-02-14T06:45:00.000Z,85.26
2023-02-14T07:00:00.000Z,84.94
2023-02-14T07:15:00.000Z,84.28
2023-02-14T07:30:00.000Z,83.42
2023-02-14T07:45:00.000Z,82.95
2023-02-14T08:00:00.000Z,81.85
2023-02-14T08:15:00.000Z,81.82
2023-02-14T08:30:00.000Z,80.84
2023-02-14T08:45:00.000Z,80.55
2023-02-14T09:00:00.000Z,80.4
2023-02-14T09:15:00.000Z,80.07
2023-02-14T09:30:00.000Z,78.98
2023-02-14T09:45:00.000Z,78.05
2023-02-14T10:00:00.000Z,74.54
2023-02-14T10:15:00.000Z,72.23
2023-02-14T10:30:00.000Z,70.9
2023-02-14T10:45:00.000Z,64.04
2023-02-14T11:00:00.000Z,62.55
2023-02-14T11:15:00.000Z,67.74
2023-02-14T11:30:00.000Z,62.49
2023-02-14T11:45:00.000Z,60.87
2023-02-14T12:00:00.000Z,62.13
2023-02-14T12:15:00.000Z,62.05
2023-02-14T12:30:00.000Z,61.52
2023-02-14T12:45:00.000Z,62.18
2023-02-14T13:00:00.000Z,65.42
2023-02-14T13:15:00.000Z,66.86
2023-02-14T13:30:00.000Z,67.97
2023-02-14T13:45:00.000Z,68.69
2023-02-14T14:00:00.000Z,69.13
2023-02-14T14:15:00.000Z,70.52
2023-02-14T14:30:00.000Z,72.96
2023-02-14T14:45:00.000Z,71.96
2023-02-14T15:00:00.000Z,75.05
2023-02-14T15:15:00.000Z,77.79
2023-02-14T15:30:00.000Z,79.15
2023-02-14T15:45:00.000Z,80.7
2023-02-14T16:00:00.000Z,81.07
2023-02-14T16:15:00.000Z,81.85
2023-02-14T16:30:00.000Z,80.95
2023-02-14T16:45:00.000Z,79.58
2023-02-14T17:00:00.000Z,79.16
2023-02-14T17:15:00.000Z,82.69
2023-02-14T17:30:00.000Z,84.02
2023-02-14T17:45:00.000Z,83.8
2023-02-14T18:00:00.000Z,83.85
2023-02-14T18:15:00.000Z,83.88
2023-02-14T18:30:00.000Z,84.02
2023-02-14T18:45:00.000Z,84.47
2023-02-14T19:00:00.000Z,84.88
2023-02-14T19:15:00.000Z,85.42
2023-02-14T19:30:00.000Z,85.22
2023-02-14T19:45:00.000Z,84.82
2023-02-14T20:00:00.000Z,84.84
2023-02-14T20:15:00.000Z,85.3
2023-02-14T20:30:00.000Z,85.41
2023-02-14T20:45:00.000Z,85.6
2023-02-14T21:00:00.000Z,85.74
2023-02-14T21:15:00.000Z,85.61
2023-02-14T21:30:00.000Z,86.03
2023-02-14T21:45:00.000Z,86.24
2023-02-14T22:00:00.000Z,86.21
2023-02-14T22:15:00.000Z,86.47
2023-02-14T22:30:00.000Z,86.42
2023-02-14T22:45:00.000Z,86.45
2023-02-14T23:00:00.000Z,86.31
2023-02-14T23:15:00.000Z,86.36
2023-02-14T23:30:00.000Z,85.74
2023-02-14T23:45:00.000Z,85.87
